createdAt,value
2019-04-27T00:01:49.761Z,93.70
2019-04-27T00:04:20.763Z,93.70
2019-04-27T00:07:03.832Z,93.80
2019-04-27T00:09:50.519Z,93.90
2019-04-27T00:12:16.471Z,93.80
2019-04-27T00:14:48.310Z,94.00
2019-04-27T00:17:45.000Z,94.00
2019-04-27T00:20:06.764Z,94.20
2019-04-27T00:22:38.834Z,94.40
2019-04-27T00:25:08.191Z,94.40
2019-04-27T00:27:37.913Z,94.80
2019-04-27T00:30:08.446Z,94.50
2019-04-27T00:32:39.755Z,94.70
2019-04-27T00:35:10.792Z,94.60
2019-04-27T00:37:42.635Z,94.70
2019-04-27T00:40:15.230Z,95.00
2019-04-27T00:42:44.824Z,94.70
2019-04-27T00:45:15.370Z,94.70
2019-04-27T00:47:56.844Z,94.80
2019-04-27T00:50:15.844Z,94.70
2019-04-27T00:52:45.273Z,95.10
2019-04-27T00:55:15.081Z,94.80
2019-04-27T00:57:53.642Z,94.80
2019-04-27T01:00:25.932Z,94.90
2019-04-27T01:02:59.867Z,95.20
2019-04-27T01:05:30.123Z,94.70
2019-04-27T01:07:59.464Z,94.70
2019-04-27T01:10:30.500Z,94.70
2019-04-27T01:13:00.143Z,94.60
2019-04-27T01:15:29.511Z,94.50
2019-04-27T01:18:11.662Z,94.50
2019-04-27T01:20:49.263Z,94.40
2019-04-27T01:23:19.306Z,94.30
2019-04-27T01:25:54.320Z,94.30
2019-04-27T01:28:25.395Z,94.30
2019-04-27T01:30:56.454Z,94.20
2019-04-27T01:33:25.891Z,94.60
2019-04-27T01:35:55.252Z,94.20
2019-04-27T01:38:24.601Z,94.10
2019-04-27T01:40:53.955Z,94.10
2019-04-27T01:43:23.307Z,94.20
2019-04-27T01:45:52.671Z,94.00
2019-04-27T01:48:25.219Z,94.00
2019-04-27T01:50:53.260Z,93.90
2019-04-27T01:53:22.614Z,93.90
2019-04-27T01:55:52.104Z,94.00
2019-04-27T01:58:21.535Z,93.90
2019-04-27T02:00:52.536Z,93.90
2019-04-27T02:03:33.221Z,94.40
2019-04-27T02:06:01.299Z,94.00
2019-04-27T02:08:30.748Z,94.10
2019-04-27T02:11:00.109Z,94.10
2019-04-27T02:13:29.526Z,94.10
2019-04-27T02:15:58.939Z,94.20
2019-04-27T02:18:37.257Z,94.20
2019-04-27T02:20:59.543Z,94.20
2019-04-27T02:23:29.872Z,94.30
2019-04-27T02:25:59.233Z,94.40
2019-04-27T02:28:39.449Z,94.50
2019-04-27T02:31:19.707Z,94.50
2019-04-27T02:33:50.793Z,94.60
2019-04-27T02:36:20.329Z,94.70
2019-04-27T02:38:49.854Z,94.80
2019-04-27T02:41:19.927Z,94.90
2019-04-27T02:44:01.781Z,95.00
2019-04-27T02:46:31.680Z,95.00
2019-04-27T02:49:06.356Z,94.90
2019-04-27T02:51:52.441Z,95.00
2019-04-27T02:54:21.869Z,95.00
2019-04-27T02:56:52.677Z,95.00
2019-04-27T02:59:22.563Z,95.00
2019-04-27T03:02:00.772Z,95.10
2019-04-27T03:04:30.380Z,95.00
2019-04-27T03:07:00.388Z,95.10
2019-04-27T03:09:30.481Z,94.90
2019-04-27T03:12:01.812Z,94.90
2019-04-27T03:14:44.611Z,95.00
2019-04-27T03:17:27.628Z,95.30
2019-04-27T03:20:10.229Z,95.60
2019-04-27T03:22:43.681Z,95.70
2019-04-27T03:25:15.343Z,96.40
2019-04-27T03:27:46.985Z,97.50
2019-04-27T03:30:17.028Z,98.60
2019-04-27T03:32:54.700Z,98.90
2019-04-27T03:35:21.928Z,99.40
2019-04-27T03:37:50.131Z,99.60
2019-04-27T03:40:20.501Z,99.90
2019-04-27T03:42:51.780Z,99.90
2019-04-27T03:45:21.211Z,99.90
2019-04-27T03:47:50.737Z,99.90
2019-04-27T03:50:21.842Z,99.90
2019-04-27T03:53:10.373Z,99.90
2019-04-27T03:55:59.931Z,99.90
2019-04-27T03:58:32.399Z,99.90
2019-04-27T04:01:01.837Z,99.90
2019-04-27T04:03:31.271Z,99.90
2019-04-27T04:06:00.710Z,99.90
2019-04-27T04:08:30.837Z,99.90
2019-04-27T04:11:19.831Z,99.90
2019-04-27T04:13:51.135Z,99.90
2019-04-27T04:16:39.318Z,99.90
2019-04-27T04:19:11.450Z,99.90
2019-04-27T04:21:40.891Z,99.90
2019-04-27T04:24:12.171Z,99.90
2019-04-27T04:26:41.377Z,99.90
2019-04-27T04:29:10.765Z,99.90
2019-04-27T04:31:40.708Z,99.90
2019-04-27T04:34:12.066Z,99.90
2019-04-27T04:40:05.796Z,99.90
2019-04-27T04:46:36.073Z,99.90
2019-04-27T04:49:05.580Z,99.90
2019-04-27T04:51:35.272Z,99.90
2019-04-27T04:54:04.710Z,99.90
2019-04-27T04:56:34.135Z,99.90
2019-04-27T04:59:03.628Z,99.90
2019-04-27T05:05:20.584Z,99.90
2019-04-27T05:07:49.939Z,99.90
2019-04-27T05:10:19.363Z,99.90
2019-04-27T05:12:50.415Z,99.90
2019-04-27T05:15:20.734Z,99.90
2019-04-27T05:17:51.011Z,99.90
2019-04-27T05:20:29.455Z,99.90
2019-04-27T05:22:59.486Z,99.90
2019-04-27T05:25:29.073Z,99.90
2019-04-27T05:27:59.652Z,99.90
2019-04-27T05:30:29.355Z,99.90
2019-04-27T05:32:58.731Z,99.90
2019-04-27T05:35:29.670Z,99.90
2019-04-27T05:38:00.861Z,99.90
2019-04-27T05:40:31.107Z,99.90
2019-04-27T05:43:00.708Z,99.90
2019-04-27T05:49:18.849Z,99.90
2019-04-27T05:51:50.096Z,99.90
2019-04-27T05:54:20.092Z,99.90
2019-04-27T05:56:50.615Z,99.90
2019-04-27T05:59:20.074Z,99.90
2019-04-27T06:01:50.639Z,99.90
2019-04-27T06:04:20.094Z,99.90
2019-04-27T06:06:49.996Z,99.90
2019-04-27T06:09:19.674Z,99.90
2019-04-27T06:11:50.639Z,99.90
2019-04-27T06:14:20.328Z,99.90
2019-04-27T06:16:51.405Z,99.90
2019-04-27T06:19:20.925Z,99.90
2019-04-27T06:21:50.359Z,99.90
2019-04-27T06:24:19.788Z,99.90
2019-04-27T06:26:49.788Z,99.90
2019-04-27T06:29:19.652Z,99.90
2019-04-27T06:31:49.713Z,99.90
2019-04-27T06:34:19.495Z,99.90
2019-04-27T06:36:49.138Z,99.90
2019-04-27T06:39:20.389Z,99.90
2019-04-27T06:41:49.635Z,99.90
2019-04-27T06:44:19.648Z,99.90
2019-04-27T06:46:49.198Z,99.90
2019-04-27T06:49:19.471Z,99.90
2019-04-27T06:51:49.780Z,99.90
2019-04-27T06:54:21.369Z,99.90
2019-04-27T06:56:52.194Z,99.80
2019-04-27T06:59:21.639Z,99.20
2019-04-27T07:01:50.988Z,99.90
2019-04-27T07:04:20.383Z,99.60
2019-04-27T07:06:54.010Z,99.80
2019-04-27T07:09:20.920Z,98.80
2019-04-27T07:11:50.384Z,98.00
2019-04-27T07:14:19.901Z,98.20
2019-04-27T07:16:50.770Z,97.60
2019-04-27T07:19:20.468Z,97.60
2019-04-27T07:25:02.012Z,96.90
2019-04-27T07:30:55.488Z,95.30
2019-04-27T07:33:24.849Z,94.80
2019-04-27T07:35:54.288Z,94.60
2019-04-27T07:38:23.638Z,93.70
2019-04-27T07:40:53.003Z,94.40
2019-04-27T07:43:30.066Z,94.60
2019-04-27T07:45:59.850Z,95.30
2019-04-27T07:48:29.199Z,94.70
2019-04-27T07:50:59.070Z,94.10
2019-04-27T07:53:29.154Z,94.10
2019-04-27T07:55:59.295Z,94.70
2019-04-27T07:58:29.580Z,93.00
2019-04-27T08:00:59.558Z,91.90
2019-04-27T08:03:29.190Z,91.00
2019-04-27T08:05:58.899Z,89.80
2019-04-27T08:08:28.637Z,88.60
2019-04-27T08:10:59.503Z,87.10
2019-04-27T08:13:29.448Z,90.00
2019-04-27T08:15:59.106Z,89.30
2019-04-27T08:18:29.921Z,87.60
2019-04-27T08:20:59.510Z,87.50
2019-04-27T08:23:29.487Z,88.80
2019-04-27T08:25:59.104Z,88.60
2019-04-27T08:28:36.163Z,86.30
2019-04-27T08:31:10.207Z,88.20
2019-04-27T08:33:39.567Z,89.20
2019-04-27T08:36:09.068Z,86.40
2019-04-27T08:38:38.928Z,85.50
2019-04-27T08:41:09.033Z,86.20
2019-04-27T08:43:39.128Z,84.40
2019-04-27T08:46:08.887Z,84.90
2019-04-27T08:48:39.304Z,82.30
2019-04-27T08:51:10.096Z,82.80
2019-04-27T08:53:39.873Z,82.40
2019-04-27T08:56:09.480Z,78.60
2019-04-27T08:58:38.869Z,79.70
2019-04-27T09:01:10.251Z,79.90
2019-04-27T09:03:40.436Z,79.90
2019-04-27T09:06:11.274Z,80.50
2019-04-27T09:08:43.980Z,79.50
2019-04-27T09:11:14.971Z,77.80
2019-04-27T09:13:48.806Z,78.60
2019-04-27T09:16:29.051Z,78.20
2019-04-27T09:19:00.070Z,79.70
2019-04-27T09:21:31.064Z,78.70
2019-04-27T09:24:00.517Z,76.10
2019-04-27T09:26:29.875Z,77.40
2019-04-27T09:28:59.591Z,77.80
2019-04-27T09:31:29.095Z,76.60
2019-04-27T09:33:58.457Z,75.60
2019-04-27T09:36:27.911Z,76.40
2019-04-27T09:38:57.288Z,76.30
2019-04-27T09:41:26.712Z,75.80
2019-04-27T09:43:56.365Z,75.00
2019-04-27T09:46:26.031Z,73.70
2019-04-27T09:48:56.553Z,72.20
2019-04-27T09:51:26.079Z,72.60
2019-04-27T09:53:56.308Z,74.20
2019-04-27T09:56:26.172Z,72.40
2019-04-27T09:58:57.259Z,72.90
2019-04-27T10:01:28.816Z,71.90
2019-04-27T10:03:58.411Z,71.50
2019-04-27T10:06:29.848Z,69.70
2019-04-27T10:09:00.093Z,70.20
2019-04-27T10:11:29.447Z,71.20
2019-04-27T10:13:58.814Z,78.70
2019-04-27T10:16:28.175Z,83.70
2019-04-27T10:18:57.532Z,87.10
2019-04-27T10:21:26.900Z,85.30
2019-04-27T10:23:56.767Z,86.80
2019-04-27T10:26:26.315Z,83.10
2019-04-27T10:28:56.754Z,78.50
2019-04-27T10:31:26.198Z,80.40
2019-04-27T10:33:56.015Z,76.40
2019-04-27T10:36:40.499Z,76.50
2019-04-27T10:42:35.712Z,76.40
2019-04-27T10:47:51.423Z,75.70
2019-04-27T10:50:22.225Z,74.20
2019-04-27T10:55:32.195Z,73.70
2019-04-27T10:58:01.564Z,76.20
2019-04-27T11:00:32.639Z,73.90
2019-04-27T11:03:02.004Z,74.60
2019-04-27T11:05:33.076Z,74.10
2019-04-27T11:08:02.520Z,71.70
2019-04-27T11:10:31.887Z,72.80
2019-04-27T11:13:01.323Z,71.40
2019-04-27T11:15:30.757Z,74.20
2019-04-27T11:18:00.261Z,75.50
2019-04-27T11:20:29.632Z,79.50
2019-04-27T11:26:36.376Z,81.00
2019-04-27T11:29:06.188Z,85.80
2019-04-27T11:31:36.415Z,87.20
2019-04-27T11:34:11.442Z,86.90
2019-04-27T11:36:45.626Z,84.80
2019-04-27T11:39:18.106Z,83.10
2019-04-27T11:41:47.139Z,79.10
2019-04-27T11:44:17.061Z,80.10
2019-04-27T11:46:47.559Z,77.80
2019-04-27T11:49:17.216Z,77.20
2019-04-27T15:10:13.992Z,72.10
2019-04-27T15:12:44.171Z,76.00
2019-04-27T15:15:14.188Z,79.50
2019-04-27T15:17:43.612Z,79.90
2019-04-27T15:20:22.553Z,81.40
2019-04-27T15:22:56.729Z,78.10
2019-04-27T15:25:23.209Z,77.10
2019-04-27T15:27:54.281Z,77.50
2019-04-27T15:30:27.738Z,76.30
2019-04-27T15:33:30.491Z,72.00
2019-04-27T15:36:04.315Z,72.10
2019-04-27T15:38:50.176Z,70.90
2019-04-27T15:41:31.985Z,70.30
2019-04-27T15:44:05.925Z,69.60
2019-04-27T15:46:35.005Z,70.40
2019-04-27T15:49:09.830Z,68.20
2019-04-27T15:51:38.086Z,70.00
2019-04-27T15:54:07.118Z,69.40
2019-04-27T15:56:36.997Z,68.90
2019-04-27T15:59:08.662Z,67.40
2019-04-27T16:01:39.624Z,66.70
2019-04-27T16:04:11.199Z,67.00
2019-04-27T16:06:42.835Z,66.50
2019-04-27T16:09:16.162Z,65.60
2019-04-27T16:11:50.178Z,66.10
2019-04-27T16:14:16.468Z,64.70
2019-04-27T16:16:45.927Z,64.70
2019-04-27T16:19:15.363Z,64.70
2019-04-27T16:21:47.757Z,65.20
2019-04-27T16:27:51.541Z,69.20
2019-04-27T16:33:44.477Z,76.80
2019-04-27T16:36:13.965Z,76.10
2019-04-27T16:38:51.020Z,75.70
2019-04-27T16:41:20.491Z,74.10
2019-04-27T16:43:49.924Z,72.70
2019-04-27T16:46:21.369Z,72.70
2019-04-27T16:48:50.487Z,69.90
2019-04-27T16:51:19.854Z,68.30
2019-04-27T16:53:49.359Z,66.80
2019-04-27T16:59:57.733Z,67.90
2019-04-27T17:02:25.376Z,66.60
2019-04-27T17:04:55.767Z,66.80
2019-04-27T17:07:30.185Z,66.80
2019-04-27T17:09:59.394Z,67.10
2019-04-27T17:12:29.840Z,68.10
2019-04-27T17:15:05.866Z,66.90
2019-04-27T17:17:36.186Z,66.50
2019-04-27T17:20:05.615Z,66.50
2019-04-27T17:25:48.086Z,66.10
2019-04-27T17:31:43.185Z,66.50
2019-04-27T17:34:12.556Z,66.20
2019-04-27T17:36:41.923Z,66.80
2019-04-27T17:39:12.455Z,67.00
2019-04-27T17:45:06.799Z,67.20
2019-04-27T17:47:36.141Z,67.30
2019-04-27T17:50:06.999Z,68.50
2019-04-27T17:52:37.796Z,68.50
2019-04-27T17:55:07.986Z,68.60
2019-04-27T17:57:39.158Z,69.00
2019-04-27T18:00:10.074Z,69.30
2019-04-27T18:02:42.380Z,70.00
2019-04-27T18:05:13.853Z,69.40
2019-04-27T18:07:44.276Z,69.30
2019-04-27T18:10:32.388Z,68.50
2019-04-27T18:16:30.321Z,69.30
2019-04-27T18:19:11.490Z,69.10
2019-04-27T18:21:40.751Z,69.30
2019-04-27T18:27:37.693Z,70.40
2019-04-27T18:33:18.534Z,70.20
2019-04-27T18:39:13.845Z,70.10
2019-04-27T18:41:50.699Z,69.90
2019-04-27T18:44:15.929Z,71.10
2019-04-27T18:50:07.323Z,71.20
2019-04-27T18:52:40.352Z,71.30
2019-04-27T18:55:11.408Z,71.90
2019-04-27T18:57:40.519Z,72.20
2019-04-27T19:00:12.567Z,72.40
2019-04-27T19:02:42.051Z,72.20
2019-04-27T19:05:11.431Z,72.80
2019-04-27T19:11:29.159Z,72.80
2019-04-27T19:13:59.115Z,73.30
2019-04-27T19:16:29.239Z,73.80
2019-04-27T19:18:58.872Z,74.00
2019-04-27T19:21:28.945Z,74.30
2019-04-27T19:23:58.629Z,74.80
2019-04-27T19:26:38.581Z,74.90
2019-04-27T19:29:09.663Z,75.20
2019-04-27T19:31:43.678Z,76.10
2019-04-27T19:34:13.096Z,76.40
2019-04-27T19:36:42.450Z,76.40
2019-04-27T19:39:14.018Z,76.80
2019-04-27T19:41:56.653Z,77.10
2019-04-27T19:44:18.536Z,77.50
2019-04-27T19:46:49.298Z,77.50
2019-04-27T19:49:19.218Z,78.10
2019-04-27T19:51:50.180Z,78.30
2019-04-27T19:54:19.601Z,78.80
2019-04-27T19:56:50.017Z,79.00
2019-04-27T19:59:21.308Z,79.50
2019-04-27T20:01:52.329Z,79.60
2019-04-27T20:04:30.787Z,79.80
2019-04-27T20:07:00.280Z,80.00
2019-04-27T20:09:34.195Z,80.30
2019-04-27T20:12:05.308Z,80.50
2019-04-27T20:14:53.355Z,80.80
2019-04-27T20:17:23.411Z,80.80
2019-04-27T20:19:52.808Z,81.20
2019-04-27T20:22:24.248Z,81.10
2019-04-27T20:24:53.302Z,81.50
2019-04-27T20:27:23.844Z,81.80
2019-04-27T20:29:53.533Z,81.50
2019-04-27T20:32:23.041Z,81.30
2019-04-27T20:34:52.495Z,81.90
2019-04-27T20:37:21.949Z,81.80
2019-04-27T20:39:51.618Z,81.70
2019-04-27T20:42:21.338Z,81.90
2019-04-27T20:44:51.647Z,81.80
2019-04-27T20:47:21.211Z,81.90
2019-04-27T20:49:50.566Z,81.60
2019-04-27T20:52:21.656Z,81.70
2019-04-27T20:54:51.485Z,81.30
2019-04-27T21:00:32.891Z,81.70
2019-04-27T21:03:03.954Z,81.90
2019-04-27T21:05:35.023Z,81.80
2019-04-27T21:08:15.167Z,81.70
2019-04-27T21:10:44.528Z,81.60
2019-04-27T21:13:13.977Z,81.50
2019-04-27T21:15:43.329Z,81.70
2019-04-27T21:18:12.680Z,81.70
2019-04-27T21:20:42.140Z,81.80
2019-04-27T21:23:12.067Z,82.00
2019-04-27T21:25:42.208Z,81.90
2019-04-27T21:28:16.390Z,81.70
2019-04-27T21:30:42.961Z,82.20
2019-04-27T21:33:12.391Z,83.00
2019-04-27T21:39:17.598Z,82.30
2019-04-27T21:45:11.329Z,82.30
2019-04-27T21:51:15.927Z,82.40
2019-04-27T21:53:59.151Z,82.30
2019-04-27T21:56:28.543Z,82.10
2019-04-27T21:58:57.920Z,82.30
2019-04-27T22:01:29.074Z,82.00
2019-04-27T22:03:58.844Z,82.10
2019-04-27T22:06:28.791Z,82.10
2019-04-27T22:08:58.184Z,82.00
2019-04-27T22:11:27.704Z,82.50
2019-04-27T22:13:57.131Z,82.30
2019-04-27T22:16:26.576Z,82.50
2019-04-27T22:18:56.012Z,82.60
2019-04-27T22:24:48.835Z,82.90
2019-04-27T22:27:18.290Z,83.50
2019-04-27T22:30:00.875Z,83.50
2019-04-27T22:32:30.671Z,83.70
2019-04-27T22:35:02.608Z,83.60
2019-04-27T22:37:31.991Z,83.90
2019-04-27T22:40:03.077Z,83.40
2019-04-27T22:42:36.826Z,83.80
2019-04-27T22:45:08.632Z,84.20
2019-04-27T22:47:37.997Z,84.10
2019-04-27T22:50:07.815Z,84.40
2019-04-27T22:52:37.173Z,84.10
2019-04-27T22:55:07.503Z,84.50
2019-04-27T22:57:38.581Z,84.40
2019-04-27T23:00:22.561Z,84.50
2019-04-27T23:02:53.553Z,85.00
2019-04-27T23:05:23.079Z,85.50
2019-04-27T23:07:52.528Z,85.40
2019-04-27T23:10:21.904Z,85.50
2019-04-27T23:12:51.351Z,85.80
2019-04-27T23:15:22.340Z,85.50
2019-04-27T23:17:52.878Z,85.90
2019-04-27T23:20:22.372Z,86.10
2019-04-27T23:22:51.820Z,86.50
2019-04-27T23:28:45.187Z,86.50
2019-04-27T23:31:16.219Z,86.60
2019-04-27T23:33:47.229Z,87.10
2019-04-27T23:36:16.601Z,87.10
2019-04-27T23:38:45.952Z,87.10
2019-04-27T23:41:15.405Z,87.40
2019-04-27T23:43:44.813Z,87.20
2019-04-27T23:46:14.160Z,87.30
2019-04-27T23:48:43.551Z,87.60
2019-04-27T23:51:23.253Z,87.00
2019-04-27T23:53:52.689Z,87.50
2019-04-27T23:56:22.595Z,87.20
2019-04-27T23:58:52.251Z,87.30
